»·PEaware :: UAL224 KSAN-KLAS

UAL224 :: KSAN-KLAS

FLIGHT INFORMATION

Flight Status: Arrived
Operator:
United Airlines
More flights by this operator :: More flights under this callsign
Pilot: Matteo S. (9898)
Aircraft: BOEING 737-800
(B738)
More flights by this aircraft type
Origin: KSAN San Diego Intl-Lindbergh
United States
Destination: KLAS McCarran Intl
United States
More flights between these airports :: More routes between these airports
Route: + PADRZ2 CHKNN SEBBY YELAH MISEN KEPEC6
File this flight plan on PilotEdge
Remarks:
Altitude:
(Current/Filed)
33,000ft
Speed:
(Current/Filed)
460kts
Departed: 18-Oct-18 09:19 AM
Arrived: 18-Oct-18 10:16 AM
Distance/Time
Traveled:
225nm/0:57
Distance/Time
To Go:
Arrived

Flight Plot

Page will automatically refresh every two minutes.

Flight plan parsing failed; only flown route is shown


Map Options




Map Legend


Flown Route
Filed Route
Departure Airport
Arrival Airport
Navaid (VOR, NDB)
Fix

Horizontal Profiles

Position Reports

Time Latitude Longitude Heading Altitude Ground
Speed
18-Oct-18 09:03 32.734142 -117.203339 269 17ft 0kts
18-Oct-18 09:04 32.734142 -117.203339 269 17ft 0kts
18-Oct-18 09:05 32.734142 -117.203339 269 17ft 0kts
18-Oct-18 09:06 32.734142 -117.203339 269 17ft 0kts
18-Oct-18 09:07 32.734142 -117.203339 269 17ft 0kts
18-Oct-18 09:08 32.734142 -117.203339 269 17ft 0kts
18-Oct-18 09:09 32.734142 -117.203339 269 17ft 0kts
18-Oct-18 09:10 32.734142 -117.203339 269 17ft 0kts
18-Oct-18 09:11 32.734142 -117.203338 270 17ft 0kts
18-Oct-18 09:12 32.733949 -117.202859 323 17ft 2kts
18-Oct-18 09:13 32.733474 -117.202675 346 17ft 0kts
18-Oct-18 09:14 32.733474 -117.202675 346 17ft 0kts
18-Oct-18 09:15 32.734050 -117.202707 16 17ft 7kts
18-Oct-18 09:16 32.735232 -117.200852 106 17ft 11kts
18-Oct-18 09:17 32.733810 -117.194989 105 21ft 19kts
18-Oct-18 09:18 32.732000 -117.187388 106 18ft 22kts
18-Oct-18 09:19 32.730523 -117.181395 106 17ft 21kts
18-Oct-18 09:20 32.729562 -117.176488 69 23ft 13kts
18-Oct-18 09:21 32.734997 -117.195825 285 258ft 160kts
18-Oct-18 09:22 32.755384 -117.245645 305 2606ft 194kts
18-Oct-18 09:23 32.793595 -117.308784 306 4851ft 266kts
18-Oct-18 09:24 32.839164 -117.380073 309 8371ft 280kts
18-Oct-18 09:25 32.888842 -117.456931 309 10810ft 324kts
18-Oct-18 09:26 32.946488 -117.546534 309 13676ft 350kts
18-Oct-18 09:27 33.006453 -117.640046 309 16831ft 364kts
18-Oct-18 09:28 33.069753 -117.736116 317 19603ft 380kts
18-Oct-18 09:29 33.132057 -117.798291 327 21515ft 392kts
18-Oct-18 09:30 33.239330 -117.817149 1 23863ft 406kts
18-Oct-18 09:31 33.353864 -117.811834 1 26009ft 421kts
18-Oct-18 09:32 33.472299 -117.806267 1 27881ft 437kts
18-Oct-18 09:33 33.595240 -117.800473 1 29616ft 450kts
18-Oct-18 09:34 33.721692 -117.794496 1 31184ft 463kts
18-Oct-18 09:35 33.849911 -117.788409 1 33015ft 464kts
18-Oct-18 09:36 33.978119 -117.782189 3 33137ft 460kts
18-Oct-18 09:37 34.101207 -117.746739 15 33154ft 464kts
18-Oct-18 09:38 34.203465 -117.660075 52 33162ft 468kts
18-Oct-18 09:39 34.257740 -117.517587 55 33190ft 468kts
18-Oct-18 09:40 34.339538 -117.395203 48 33221ft 469kts
18-Oct-18 09:41 34.422376 -117.275472 49 33263ft 471kts
18-Oct-18 09:42 34.506099 -117.154048 49 33262ft 470kts
18-Oct-18 09:43 34.589733 -117.032326 49 33283ft 471kts
18-Oct-18 09:44 34.673587 -116.909855 48 33257ft 461kts
18-Oct-18 09:45 34.753453 -116.792804 49 33238ft 453kts
18-Oct-18 09:46 34.835028 -116.672897 49 32745ft 463kts
18-Oct-18 09:47 34.930686 -116.570180 36 29617ft 457kts
18-Oct-18 09:48 35.028432 -116.475574 35 26432ft 443kts
18-Oct-18 09:49 35.118347 -116.385280 43 24260ft 406kts
18-Oct-18 09:50 35.194212 -116.289088 43 22980ft 393kts
18-Oct-18 09:51 35.269028 -116.195063 43 21181ft 380kts
18-Oct-18 09:52 35.341370 -116.103950 43 19385ft 369kts
18-Oct-18 09:53 35.411717 -116.015127 44 17581ft 358kts
18-Oct-18 09:54 35.479752 -115.929009 44 16055ft 349kts
18-Oct-18 09:55 35.546390 -115.844453 44 14654ft 342kts
18-Oct-18 09:56 35.611469 -115.761668 44 13469ft 332kts
18-Oct-18 09:57 35.673088 -115.683063 44 13000ft 295kts
18-Oct-18 09:58 35.729808 -115.610587 44 13015ft 294kts
18-Oct-18 09:59 35.803098 -115.573862 3 13017ft 293kts
18-Oct-18 10:00 35.884119 -115.568638 2 13009ft 293kts
18-Oct-18 10:01 35.961320 -115.544235 38 12871ft 297kts
18-Oct-18 10:02 36.003873 -115.460793 66 11783ft 287kts
18-Oct-18 10:03 36.029824 -115.371611 82 10928ft 269kts
18-Oct-18 10:04 36.024523 -115.280545 94 9933ft 268kts
18-Oct-18 10:05 36.017714 -115.189248 93 8926ft 267kts
18-Oct-18 10:06 36.011509 -115.098393 93 8002ft 259kts
18-Oct-18 10:07 36.006277 -115.014856 91 7754ft 243kts
18-Oct-18 10:08 36.001302 -114.931071 92 6274ft 246kts
18-Oct-18 10:09 35.996232 -114.847040 92 4994ft 241kts
18-Oct-18 10:10 35.991531 -114.771462 86 4982ft 213kts
18-Oct-18 10:11 36.034039 -114.754649 308 5000ft 215kts
18-Oct-18 10:12 36.056857 -114.823048 292 4976ft 209kts
18-Oct-18 10:13 36.071375 -114.891113 277 4988ft 206kts
18-Oct-18 10:14 36.073617 -114.961637 271 4675ft 197kts
18-Oct-18 10:15 36.073630 -115.025124 271 3680ft 172kts
18-Oct-18 10:16 36.073662 -115.077731 271 2850ft 140kts
18-Oct-18 10:17 36.073614 -115.125406 271 2122ft 137kts
18-Oct-18 10:18 36.073951 -115.148572 289 2114ft 16kts
18-Oct-18 10:19 36.074558 -115.150209 299 2119ft 1kts
18-Oct-18 10:20 36.075689 -115.151568 336 2122ft 16kts
18-Oct-18 10:21 36.078470 -115.151053 11 2114ft 8kts
18-Oct-18 10:22 36.078814 -115.147264 57 2101ft 8kts
18-Oct-18 10:23 36.079568 -115.146658 23 2096ft 0kts

Navigation Log

Ident Type
Flight plan parsing failed, navigation log unavailable